Rayne, LA (70578)

1:03 AM CDT on September 18, 2014 (GMT -0500)
Oaktree Lane | Change Station
CLOSE
Current Station
Personal Weather Station
Location: Rayne, LA
Elevation: 28 ft
Nearby Weather Stations

Elev 28 ft 30.27 °N, 92.26 °W | Updated 0 second ago

Partly Cloudy
Partly Cloudy
75.1 °F
Feels Like 73 °F
N
0.0
Wind Variable Wind from ESE
Gusts 0.0 mph

Today
High -- | Low -- °F
--% Chance of Precip.
Yesterday
High -- | Low -- °F
Precip. -- in
6:55 AM 7:10 PM
Waning Crescent, 30% visible
Pressure 29.91 in
Visibility 10.0 miles
Clouds Few 200 ft
Scattered Clouds 600 ft
Scattered Clouds 3200 ft
Heat Index 73 °F
Dew Point 75 °F
Humidity 99%
Rainfall 0.00 in
Snow Depth Not available.
UV 0 out of 12
Pollen 7.60 out of 12
Air Quality Not available.
Flu Activity Not available.
METAR KLFT 180553Z 00000KT 10SM FEW002 SCT006 SCT032 24/24 A2991 RMK AO2 SLP129 T02390239 10278 20239 403170222 58007

More Conditions Fewer Conditions

Pressure 29.91 in
Visibility 10.0 miles
Clouds Few 200 ft
Scattered Clouds 600 ft
Scattered Clouds 3200 ft
Heat Index 73 °F
Dew Point 75 °F
Humidity 99%
Rainfall 0.00 in
Snow Depth Not available.
UV 0 out of 12
Pollen 7.60 out of 12
Air Quality Not available.
Flu Activity Not available.
METAR KLFT 180553Z 00000KT 10SM FEW002 SCT006 SCT032 24/24 A2991 RMK AO2 SLP129 T02390239 10278 20239 403170222 58007

More Conditions Fewer Conditions

10-Day Weather Forecast

Almanac

Astronomy

Sep. 18, 2014 Rise Set
Actual Time 6:55 AM CDT 7:10 PM CDT
Civil Twilight 6:31 AM CDT 7:34 PM CDT
Nautical Twilight 6:03 AM CDT 8:02 PM CDT
Astronomical Twilight 5:34 AM CDT 8:30 PM CDT
Moon 2:04 AM CDT 3:47 PM CDT
Length of Visible Light 13h 03m
Length of Day
12h 15m
Tomorrow will be 1m 48s shorter.
Waning Crescent, 30% of the Moon is Illuminated
Today
Waning Crescent
Sep 24
New
Oct 1
First Quarter
Oct 8
Full
Oct 15
Last Quarter

Today's Extremes

State Highs State Lows

Community

WunderPhotos

Upload Photos

1,754,297 photos uploaded!

Nearby

Snow Depth

Station Depth Elevation
No new snow has been reported.

Earthquake Activity

City Distance Mag. Time & Date
No recent earthquake activity has been reported nearby.
Minimum magnitude displayed is 2.5.

Coastal Water Temperatures

Place Temperature
Fresh Water Canal Locks, LA 84.0 °F
Amerada Pass, LA 84.9 °F

Nearby Weather Stations